ESMT/HAD METAR and TAF weather

Enter ICAO airport designator
Station Type Date Time Source
ESMT METAR 2021/07/31 00:20 UTC NOAA

ESMT 310020Z AUTO 25006KT 9999 FEW033/// 17/14 Q1001


Station Type Date Time Source
ESMT Decoded METAR 2021/07/31 00:20 UTC NOAA

Halmstad Swedish Air Force Base , Sweden (ESMT) 56-41N 012-50E
Jul 30, 2021 - 08:20 PM EDT / 2021.07.31 0020 UTC
Wind: from the WSW (250 degrees) at 7 MPH (6 KT):0
Visibility: greater than 7 mile(s):0
Sky conditions: mostly clear
Temperature: 62 F (17 C)
Dew Point: 57 F (14 C)
Relative Humidity: 82%
Pressure (altimeter): 29.56 in. Hg (1001 hPa)
ob: ESMT 310020Z AUTO 25006KT 9999 FEW033/// 17/14 Q1001
cycle: 0

Station Type Date Time Source
ESMT TAF 2020/11/01 07:40 UTC NOAA

TAF
AMD ESMT 010733Z 0107/0121 16010KT 9999 BKN012
TEMPO 0107/0109 2800 RADZ BR BKN003
BECMG 0109/0112 SCT012

Example: see airport list